Terminal Aerodrome Forecast
Issued by NWS

Home | Current Version | Previous Version | Text Only | Print | Product List | Glossary On
Versions: 1 2 3 4 5 6 7 8 9 10 11 12
000
FTUS43 KEAX 140500
TAFMKC
TAF
KMKC 140520Z 1406/1506 VRB03KT P6SM BKN060
     FM141600 15007KT P6SM SCT150
     FM150100 15005KT P6SM BKN060=

USA.gov is the U.S. government's official web portal to all federal, state and local government web resources and services.